Etusivu
METAR-TAF:

METAR-TAF

Lentoasemat :

Palestine Municipal Airport

Palestine, Texas, Yhdysvallat

Leveyspiiri: 31-46-46N, Pituuspiiri: 095-42-22W, korkeus merenpinnasta: 129 m

Tämänhetkinen sää

Tämä raportti tehtiin 37 minuuttia sitten, kello 20.15 UTC
Tuuli 5 kn kaakosta
Lämpötila 24°C
Kosteus 94%
Ilmanpaine 1011 hPa
Näkyvyys: 9.7 km
selkeää
heikkoa sadetta, utua

METAR: KPSN 232015Z AUTO 14005KT 6SM -RA BR CLR 24/23 A2985 RMK AO2 LTG DSNT SE-W

Aika: 15:52 (20:52 UTC)


TAF: puuttuu

Säähavainnot ja -ennusteet yli 4000 lentoasemalta (METAR- ja TAF-raportit).

Käytössä olevat sääasemat on merkitty karttaan keltaisilla ja punaisilla pisteillä.

Aseta hiiri pisteen päälle nähdäksesi sääaseman nimen.

Klikkaa sitten nähdäksesi säähavainnot ja -ennusteet.

Kartan vaihtaminen: klikkaa mustalla rastilla varustettuja vihreitä pisteitä, niin voit zoomata sisään; viivalla varustettua vihreää pistettä, niin voit zoomata ulos tai vihreitä nuolia, niin pääset viereisille kartoille.


METAR-TAF: